Terminal Aerodrome Forecast
Issued by NWS

Home | Current Version | Previous Version | Text Only | Print | Product List | Glossary On
Versions: 1 2 3 4 5 6 7 8 9 10 11 12 13 14 15 16
000
FTUS42 TJSJ 312300
TAFJSJ
TAF
TJSJ 312328Z 0100/0124 16005KT P6SM FEW025 SCT050 SCT100
     FM010200 VRB03KT P6SM FEW030 SCT120 PROB30 0109/0112 -SHRA
      BKN030
     FM011330 08011KT P6SM FEW025 SCT050=

USA.gov is the U.S. government's official web portal to all federal, state and local government web resources and services.